Time;durP1;ratioP1;P1;durP2;ratioP2;P2;SDS_P1;SDS_P2;PMS_P1;PMS_P2;Temp;Humidity;BMP_temperature;BMP_pressure;BME280_temperature;BME280_humidity;BME280_pressure;Samples;Min_cycle;Max_cycle;Signal;HPM_P1;HPM_P2
2023/01/05 00:01:43;;;;;;;10.08;8.38;;;;;;;1.48;85.13;99662.83;1669036;84;21101;-73
2023/01/05 00:04:11;;;;;;;8.00;6.85;;;;;;;1.52;85.12;99659.27;1672552;84;20954;-77
2023/01/05 00:06:38;;;;;;;15.63;9.85;;;;;;;1.50;84.94;99661.28;1695477;84;21029;-79
2023/01/05 00:09:09;;;;;;;8.60;7.00;;;;;;;1.51;84.97;99660.28;1606918;87;21045;-74
2023/01/05 00:22:52;;;;;;;8.28;6.83;;;;;;;1.60;84.74;99620.19;1646872;84;21100;-76
2023/01/05 00:25:22;;;;;;;7.62;6.65;;;;;;;1.60;84.64;99610.09;1618481;87;21078;-78
2023/01/05 00:27:50;;;;;;;10.60;6.85;;;;;;;1.59;84.58;99603.14;1662457;85;21640;-75
2023/01/05 00:30:20;;;;;;;8.80;6.83;;;;;;;1.61;84.65;99595.33;1654595;84;21055;-77
2023/01/05 00:32:48;;;;;;;9.68;6.53;;;;;;;1.64;84.56;99580.86;1642460;86;21677;-78
2023/01/05 00:35:16;;;;;;;8.10;6.35;;;;;;;1.62;84.58;99581.57;1653464;86;21074;-81
2023/01/05 00:37:44;;;;;;;9.58;6.95;;;;;;;1.65;84.58;99571.89;1672812;84;21060;-81
2023/01/05 00:40:14;;;;;;;10.32;7.60;;;;;;;1.63;84.61;99568.64;1659669;85;21019;-80
2023/01/05 00:42:41;;;;;;;11.57;6.28;;;;;;;1.63;84.65;99559.36;1654237;84;21504;-80
2023/01/05 00:45:10;;;;;;;12.35;7.75;;;;;;;1.62;84.65;99541.31;1653714;86;21031;-82
2023/01/05 00:47:38;;;;;;;10.70;6.90;;;;;;;1.63;84.67;99535.51;1675162;84;20995;-84
2023/01/05 00:50:07;;;;;;;8.85;6.28;;;;;;;1.64;84.74;99529.98;1672502;85;21447;-87
2023/01/05 00:52:35;;;;;;;8.23;6.83;;;;;;;1.62;84.75;99524.08;1647603;86;21028;-78
2023/01/05 00:55:04;;;;;;;7.65;6.20;;;;;;;1.63;84.78;99501.05;1666990;86;21052;-83
2023/01/05 00:57:31;;;;;;;9.45;6.28;;;;;;;1.64;84.86;99504.81;1665752;86;21000;-80
2023/01/05 00:59:57;;;;;;;11.63;6.67;;;;;;;1.62;84.91;99516.64;1656484;86;21028;-79
2023/01/05 01:02:25;;;;;;;7.97;6.85;;;;;;;1.61;85.04;99515.81;1673314;84;21506;-79
2023/01/05 01:04:55;;;;;;;8.98;6.20;;;;;;;1.62;85.10;99505.53;1676805;84;21016;-82
2023/01/05 01:07:24;;;;;;;7.62;6.25;;;;;;;1.63;85.14;99489.91;1646911;85;21055;-78
2023/01/05 01:09:50;;;;;;;11.93;7.62;;;;;;;1.64;85.18;99480.95;1651761;85;21051;-80
2023/01/05 01:12:18;;;;;;;8.73;6.83;;;;;;;1.65;85.15;99469.34;1661612;86;21578;-82
2023/01/05 01:14:48;;;;;;;17.02;7.35;;;;;;;1.66;85.17;99463.03;1668339;86;21308;-87
2023/01/05 01:17:16;;;;;;;11.15;9.13;;;;;;;1.68;85.20;99458.34;1664613;85;20967;-92
2023/01/05 01:19:44;;;;;;;8.68;6.75;;;;;;;1.69;85.16;99441.42;1664507;86;21032;-86
2023/01/05 01:22:11;;;;;;;9.15;7.75;;;;;;;1.70;85.19;99441.73;1653114;86;21855;-85
2023/01/05 01:24:40;;;;;;;15.60;6.90;;;;;;;1.71;85.17;99432.77;1636534;87;21007;-87
2023/01/05 01:27:08;;;;;;;10.35;7.58;;;;;;;1.69;85.25;99428.67;1664646;86;21094;-88
2023/01/05 01:29:37;;;;;;;10.55;7.83;;;;;;;1.70;85.33;99432.97;1664817;85;21523;-89
2023/01/05 01:32:07;;;;;;;9.85;7.50;;;;;;;1.70;85.35;99421.03;1684496;83;20991;-89
2023/01/05 01:34:33;;;;;;;10.65;7.75;;;;;;;1.69;85.49;99414.91;1666490;85;21052;-88
2023/01/05 01:37:03;;;;;;;9.95;7.95;;;;;;;1.71;85.58;99410.24;1668145;86;21147;-88
2023/01/05 01:39:32;;;;;;;9.30;7.65;;;;;;;1.74;85.62;99395.25;1668993;85;21106;-86
2023/01/05 01:42:00;;;;;;;12.47;9.20;;;;;;;1.75;85.66;99388.94;1684637;83;21445;-84
2023/01/05 01:45:00;;;;;;;11.80;8.05;;;;;;;1.77;85.67;99390.58;1655478;86;21103;-83
2023/01/05 01:47:52;;;;;;;10.55;9.15;;;;;;;1.78;85.79;99396.16;1684505;84;21063;-86
2023/01/05 01:50:30;;;;;;;10.72;7.35;;;;;;;1.75;85.88;99378.33;1668737;84;21582;-84
2023/01/05 01:53:07;;;;;;;10.75;7.62;;;;;;;1.70;86.13;99377.30;1608024;86;21189;-89
2023/01/05 01:55:35;;;;;;;12.35;7.92;;;;;;;1.73;86.28;99351.70;1668872;85;20998;-85
2023/01/05 01:58:05;;;;;;;10.40;7.30;;;;;;;1.78;86.33;99340.49;1655189;86;21027;-88
2023/01/05 02:00:31;;;;;;;12.47;8.40;;;;;;;1.78;86.21;99332.03;1660032;86;21007;-83
2023/01/05 02:02:57;;;;;;;14.85;7.58;;;;;;;1.76;86.22;99319.52;1671721;83;21110;-81
2023/01/05 02:05:28;;;;;;;11.43;7.72;;;;;;;1.76;86.36;99310.23;1665458;84;21136;-82
2023/01/05 02:07:54;;;;;;;9.80;7.20;;;;;;;1.77;86.32;99307.08;1683448;84;20971;-82
2023/01/05 02:10:48;;;;;;;10.25;8.75;;;;;;;1.75;86.39;99305.44;1668276;85;21545;-82
2023/01/05 02:13:34;;;;;;;10.08;6.53;;;;;;;1.73;86.46;99294.20;1660277;84;21026;-81
2023/01/05 02:16:25;;;;;;;8.73;7.22;;;;;;;1.75;86.57;99280.25;1622020;85;21546;-81
2023/01/05 02:19:15;;;;;;;8.60;7.67;;;;;;;1.78;86.58;99282.98;1626873;87;21244;-81
2023/01/05 02:22:11;;;;;;;9.50;7.95;;;;;;;1.82;86.57;99274.14;1640637;87;21070;-82
2023/01/05 02:25:06;;;;;;;12.82;10.38;;;;;;;1.84;86.52;99266.28;1643404;84;22079;-80
2023/01/05 02:28:07;;;;;;;11.65;8.95;;;;;;;1.85;86.46;99248.54;1630185;87;21066;-84
2023/01/05 02:30:58;;;;;;;9.28;7.37;;;;;;;1.77;86.67;99242.12;1655049;86;21095;-82
2023/01/05 02:34:02;;;;;;;9.53;7.45;;;;;;;1.70;87.13;99238.95;1666319;86;21106;-82
2023/01/05 02:36:43;;;;;;;9.75;8.58;;;;;;;1.70;87.35;99228.86;1639645;86;21412;-84
2023/01/05 02:39:17;;;;;;;8.83;7.40;;;;;;;1.68;87.64;99227.73;1698261;84;20935;-86
2023/01/05 02:41:56;;;;;;;8.23;7.33;;;;;;;1.69;87.82;99211.32;1712702;83;21029;-86
2023/01/05 02:44:23;;;;;;;11.33;7.62;;;;;;;1.69;87.88;99199.39;1694129;83;21536;-84
2023/01/05 02:47:07;;;;;;;13.53;8.55;;;;;;;1.69;88.00;99201.53;1654633;84;22119;-87
2023/01/05 02:49:38;;;;;;;11.68;7.40;;;;;;;1.72;88.02;99210.42;1699182;83;21559;-86
2023/01/05 02:52:06;;;;;;;12.53;9.00;;;;;;;1.79;87.93;99210.41;1713096;83;20992;-84
2023/01/05 02:54:40;;;;;;;9.43;7.95;;;;;;;1.83;87.78;99193.56;1693502;84;20997;-85
2023/01/05 02:57:13;;;;;;;10.08;7.92;;;;;;;1.79;87.77;99196.33;1697872;84;21658;-85
2023/01/05 02:59:47;;;;;;;9.73;7.97;;;;;;;1.83;87.81;99182.45;1698478;84;21312;-85
2023/01/05 03:02:25;;;;;;;9.05;7.37;;;;;;;1.89;87.79;99181.64;1697262;84;21096;-87
2023/01/05 03:05:03;;;;;;;13.35;8.85;;;;;;;1.97;87.67;99171.31;1699992;83;21408;-87
2023/01/05 03:07:33;;;;;;;11.12;7.87;;;;;;;1.98;87.36;99167.64;1698281;84;20972;-90
2023/01/05 03:13:39;;;;;;;8.88;7.60;;;;;;;1.97;87.41;99163.36;1703318;83;21028;-90
2023/01/05 03:15:30;;;;;;;9.73;7.50;;;;;;;2.02;87.30;99143.16;1653978;86;21038;-91
2023/01/05 03:18:11;;;;;;;11.63;8.63;;;;;;;2.01;87.23;99130.13;1680607;84;20998;-91
2023/01/05 03:20:41;;;;;;;11.78;8.28;;;;;;;1.92;87.62;99124.21;1698350;84;21063;-92
2023/01/05 03:37:58;;;;;;;11.60;9.23;;;;;;;1.93;88.95;99059.55;1704292;84;21081;-83
2023/01/05 03:40:29;;;;;;;12.25;9.03;;;;;;;1.98;89.22;99049.14;1670322;85;21910;-90
2023/01/05 03:42:56;;;;;;;12.80;9.58;;;;;;;2.05;89.30;99051.27;1704529;82;21037;-80
2023/01/05 03:45:27;;;;;;;15.98;9.35;;;;;;;2.07;89.43;99041.75;1671104;84;21578;-81
2023/01/05 03:47:54;;;;;;;12.00;8.63;;;;;;;2.06;89.74;99042.26;1698713;84;21046;-82
2023/01/05 03:50:23;;;;;;;11.80;8.28;;;;;;;2.06;89.83;99027.67;1705292;83;20985;-76
2023/01/05 03:52:49;;;;;;;12.82;9.50;;;;;;;2.06;89.98;99022.91;1709651;83;21009;-80
2023/01/05 03:55:18;;;;;;;17.62;11.15;;;;;;;2.07;90.26;99019.21;1698268;84;21314;-80
2023/01/05 03:57:47;;;;;;;14.33;11.08;;;;;;;2.08;90.53;99004.93;1687356;84;33891;-81
2023/01/05 04:00:15;;;;;;;14.80;9.98;;;;;;;2.10;91.07;99002.89;1690451;83;20969;-83
2023/01/05 04:02:44;;;;;;;10.58;9.43;;;;;;;2.08;91.68;98981.88;1709456;83;20946;-94
2023/01/05 04:05:11;;;;;;;14.18;10.50;;;;;;;2.03;92.53;98984.34;1674520;84;21046;-86
2023/01/05 04:07:38;;;;;;;15.40;11.05;;;;;;;2.00;93.36;98974.17;1670710;85;21537;-88
2023/01/05 04:10:08;;;;;;;17.45;11.22;;;;;;;1.90;94.19;98958.42;1655397;85;21051;-89
2023/01/05 04:12:36;;;;;;;15.88;11.12;;;;;;;1.88;94.93;98953.32;1663285;85;21112;-86
2023/01/05 04:15:04;;;;;;;14.80;12.23;;;;;;;1.90;95.30;98953.94;1684035;85;21053;-86
2023/01/05 04:17:34;;;;;;;14.98;11.63;;;;;;;1.93;95.82;98945.55;1667019;85;21539;-91
2023/01/05 04:20:04;;;;;;;13.88;11.43;;;;;;;1.92;96.31;98950.54;1666532;84;21067;-90
2023/01/05 04:22:32;;;;;;;13.88;11.28;;;;;;;1.95;96.72;98926.78;1684182;84;21469;-92
2023/01/05 04:24:59;;;;;;;17.35;11.30;;;;;;;1.99;97.08;98929.30;1649101;85;21111;-90
2023/01/05 04:27:27;;;;;;;14.45;11.60;;;;;;;2.00;97.19;98927.77;1684157;85;21049;-87
2023/01/05 04:29:53;;;;;;;17.60;12.10;;;;;;;2.01;97.37;98928.59;1684189;85;21091;-90
2023/01/05 04:32:20;;;;;;;19.12;13.85;;;;;;;2.04;97.62;98921.52;1684431;85;21016;-92
2023/01/05 04:34:48;;;;;;;15.28;12.03;;;;;;;2.05;97.91;98900.61;1686684;84;21652;-90
2023/01/05 04:37:16;;;;;;;20.27;15.08;;;;;;;2.06;98.09;98914.18;1691652;84;21526;-87
2023/01/05 04:39:42;;;;;;;15.48;12.95;;;;;;;2.05;98.50;98901.94;1669700;85;21577;-90
2023/01/05 04:42:09;;;;;;;20.62;14.00;;;;;;;2.02;98.86;98877.97;1679484;84;21079;-95
2023/01/05 04:44:37;;;;;;;16.48;12.80;;;;;;;2.00;99.16;98868.62;1675324;84;21091;-82
2023/01/05 04:47:04;;;;;;;23.27;16.15;;;;;;;1.99;99.62;98864.34;1679999;85;22392;-86
2023/01/05 04:49:32;;;;;;;18.10;13.90;;;;;;;1.96;100.00;98864.27;1686685;84;21754;-83
2023/01/05 04:51:59;;;;;;;20.37;13.98;;;;;;;1.96;100.00;98851.52;1686351;84;21032;-87
2023/01/05 04:54:26;;;;;;;19.60;15.30;;;;;;;1.99;100.00;98838.64;1693273;84;21819;-83
2023/01/05 04:57:00;;;;;;;19.98;15.38;;;;;;;2.01;100.00;98822.02;1693890;84;21564;-86
2023/01/05 04:59:31;;;;;;;18.57;15.38;;;;;;;2.01;100.00;98815.90;1651594;84;21518;-84
2023/01/05 05:02:07;;;;;;;22.48;14.45;;;;;;;2.04;100.00;98830.03;1676409;84;21070;-91
2023/01/05 05:04:40;;;;;;;18.62;13.88;;;;;;;2.04;100.00;98814.94;1697500;82;20947;-83
2023/01/05 05:07:07;;;;;;;19.55;13.18;;;;;;;2.03;100.00;98804.03;1674563;84;21032;-87
2023/01/05 05:09:36;;;;;;;15.53;12.07;;;;;;;2.02;100.00;98802.91;1683891;84;21014;-87
2023/01/05 05:12:05;;;;;;;16.27;11.95;;;;;;;2.02;100.00;98787.81;1676014;83;20898;-92
2023/01/05 05:14:31;;;;;;;14.55;13.05;;;;;;;2.00;100.00;98782.45;1682829;84;20980;-94
2023/01/05 05:16:59;;;;;;;17.65;13.70;;;;;;;2.03;100.00;98784.66;1696864;84;21082;-85
2023/01/05 05:19:28;;;;;;;19.87;15.53;;;;;;;2.08;100.00;98794.09;1680511;84;21076;-86
2023/01/05 05:21:57;;;;;;;18.40;14.53;;;;;;;2.10;100.00;98787.56;1698252;83;21556;-89
2023/01/05 05:24:27;;;;;;;18.67;13.98;;;;;;;2.10;100.00;98777.47;1699035;84;21028;-92
2023/01/05 05:26:57;;;;;;;17.30;13.98;;;;;;;2.11;100.00;98770.59;1698983;84;21080;-85
2023/01/05 05:29:30;;;;;;;15.38;12.37;;;;;;;2.13;100.00;98763.25;1697764;84;21169;-88
2023/01/05 05:31:58;;;;;;;;;;;;;;;2.18;100.00;98770.55;1689673;84;21091;-90
2023/01/05 05:34:28;;;;;;;18.87;14.83;;;;;;;2.19;100.00;98762.38;1666722;84;20843;-87
2023/01/05 05:36:58;;;;;;;17.80;13.48;;;;;;;2.23;100.00;98767.24;1670921;84;21011;-88
2023/01/05 05:39:24;;;;;;;16.87;13.62;;;;;;;2.29;100.00;98736.69;1677367;84;21064;-89
2023/01/05 05:41:53;;;;;;;17.00;13.28;;;;;;;2.36;100.00;98751.19;1696447;84;21095;-86
2023/01/05 05:44:20;;;;;;;19.17;15.53;;;;;;;2.39;100.00;98738.31;1697207;84;21257;-88
2023/01/05 05:46:50;;;;;;;16.00;12.43;;;;;;;2.43;100.00;98720.10;1669712;84;21108;-89
2023/01/05 05:49:17;;;;;;;16.07;14.30;;;;;;;2.45;100.00;98697.61;1702042;84;21089;-85
2023/01/05 05:51:46;;;;;;;20.23;13.90;;;;;;;2.47;100.00;98715.45;1694612;84;21543;-84
2023/01/05 05:54:15;;;;;;;15.98;12.18;;;;;;;2.52;100.00;98704.98;1680270;85;21153;-89
2023/01/05 05:56:43;;;;;;;14.98;12.00;;;;;;;2.55;100.00;98693.91;1698961;82;21147;-85
2023/01/05 05:59:10;;;;;;;16.42;12.58;;;;;;;2.58;100.00;98717.38;1683053;85;21109;-85
2023/01/05 06:01:39;;;;;;;16.37;12.25;;;;;;;2.62;100.00;98695.17;1683222;85;21075;-86
2023/01/05 06:04:08;;;;;;;14.50;11.88;;;;;;;2.63;100.00;98673.73;1682590;84;21152;-85
2023/01/05 06:06:36;;;;;;;13.55;11.08;;;;;;;2.63;100.00;98682.20;1674796;84;21018;-87
2023/01/05 06:09:03;;;;;;;30.43;17.45;;;;;;;2.63;100.00;98669.75;1682226;84;21182;-83
2023/01/05 06:11:29;;;;;;;17.98;13.62;;;;;;;2.63;100.00;98671.08;1658768;84;21044;-84
2023/01/05 06:13:56;;;;;;;25.15;16.73;;;;;;;2.64;100.00;98661.24;1683283;85;21064;-82
2023/01/05 06:16:23;;;;;;;24.57;17.42;;;;;;;2.68;100.00;98655.80;1682062;84;21544;-80
2023/01/05 06:18:49;;;;;;;19.25;14.90;;;;;;;2.70;100.00;98649.73;1682021;84;21197;-80
2023/01/05 06:21:16;;;;;;;15.20;12.58;;;;;;;2.71;100.00;98659.33;1682662;83;21132;-82
2023/01/05 06:23:42;;;;;;;15.10;11.25;;;;;;;2.78;100.00;98639.34;1682631;85;21057;-79
2023/01/05 06:26:09;;;;;;;13.05;10.45;;;;;;;2.81;100.00;98640.20;1681874;84;21089;-81
2023/01/05 06:28:35;;;;;;;17.35;12.93;;;;;;;2.83;100.00;98638.14;1671164;84;21565;-80
2023/01/05 06:31:03;;;;;;;16.12;11.73;;;;;;;2.82;100.00;98641.31;1685273;84;21152;-84
2023/01/05 06:33:30;;;;;;;16.52;11.68;;;;;;;2.83;100.00;98629.63;1673872;84;21182;-78
2023/01/05 06:35:59;;;;;;;12.98;11.57;;;;;;;2.86;100.00;98615.12;1679706;84;21052;-80
2023/01/05 06:38:29;;;;;;;13.35;11.45;;;;;;;2.90;100.00;98633.02;1677899;84;21741;-82
2023/01/05 06:40:56;;;;;;;13.20;11.45;;;;;;;2.92;100.00;98623.00;1657868;85;21096;-80
2023/01/05 06:43:26;;;;;;;14.35;11.40;;;;;;;2.97;100.00;98628.41;1682693;84;21053;-80
2023/01/05 06:45:53;;;;;;;12.93;10.65;;;;;;;3.03;100.00;98611.58;1678490;84;21144;-80
2023/01/05 06:48:25;;;;;;;15.38;11.33;;;;;;;3.05;100.00;98605.53;1675470;84;21116;-84
2023/01/05 06:50:59;;;;;;;14.23;12.73;;;;;;;3.06;100.00;98604.50;1665138;85;20987;-84
2023/01/05 06:53:29;;;;;;;14.03;11.10;;;;;;;3.06;100.00;98603.17;1680800;84;21089;-85
2023/01/05 06:55:56;;;;;;;14.87;12.50;;;;;;;3.10;100.00;98602.70;1677438;84;21129;-87
2023/01/05 06:58:24;;;;;;;15.65;13.18;;;;;;;3.15;100.00;98608.14;1675151;84;21133;-88
2023/01/05 07:00:53;;;;;;;14.63;12.28;;;;;;;3.18;100.00;98612.98;1683434;85;21022;-80
2023/01/05 07:03:22;;;;;;;14.90;10.63;;;;;;;3.23;100.00;98607.28;1683122;84;21109;-82
2023/01/05 07:05:48;;;;;;;13.85;11.90;;;;;;;3.28;100.00;98613.23;1683352;85;21043;-79
2023/01/05 07:08:14;;;;;;;15.78;12.58;;;;;;;3.32;100.00;98587.82;1682110;84;21202;-80
2023/01/05 07:10:42;;;;;;;13.15;11.18;;;;;;;3.34;100.00;98587.08;1678152;84;21181;-77
2023/01/05 07:13:11;;;;;;;16.25;13.05;;;;;;;3.35;100.00;98586.86;1682759;84;21030;-82
2023/01/05 07:15:39;;;;;;;15.78;12.43;;;;;;;3.37;100.00;98575.98;1683494;84;20983;-79
2023/01/05 07:18:07;;;;;;;14.83;11.55;;;;;;;3.35;100.00;98560.81;1701061;82;21118;-80
2023/01/05 07:20:37;;;;;;;18.05;13.78;;;;;;;3.36;100.00;98568.53;1674366;85;21129;-79
2023/01/05 07:23:03;;;;;;;15.72;13.18;;;;;;;3.43;100.00;98560.45;1670518;85;21242;-82
2023/01/05 07:25:32;;;;;;;13.43;11.50;;;;;;;3.49;100.00;98551.05;1681595;85;21048;-86
2023/01/05 07:27:58;;;;;;;17.17;12.63;;;;;;;3.55;100.00;98545.84;1680187;85;21099;-83
2023/01/05 07:30:25;;;;;;;19.65;16.00;;;;;;;3.59;100.00;98550.45;1680589;85;21009;-79
2023/01/05 07:32:53;;;;;;;16.40;13.22;;;;;;;3.63;100.00;98530.34;1673677;84;21073;-85
2023/01/05 07:35:22;;;;;;;17.60;13.30;;;;;;;3.64;100.00;98549.24;1631541;86;21657;-79
2023/01/05 07:37:48;;;;;;;15.15;12.58;;;;;;;3.63;100.00;98533.00;1675169;84;20989;-81
2023/01/05 07:40:17;;;;;;;14.63;12.82;;;;;;;3.69;100.00;98534.73;1699255;83;20947;-92
2023/01/05 07:42:53;;;;;;;18.25;11.45;;;;;;;3.75;100.00;98522.33;1701493;83;21043;-91
2023/01/05 07:45:20;;;;;;;15.15;12.95;;;;;;;3.88;100.00;98528.22;1704313;84;21567;-86
2023/01/05 07:47:47;;;;;;;15.60;13.25;;;;;;;3.88;100.00;98528.22;1673242;84;21075;-87
2023/01/05 07:50:15;;;;;;;17.75;13.35;;;;;;;3.96;100.00;98504.42;1684420;84;21046;-83
2023/01/05 07:52:50;;;;;;;18.00;12.85;;;;;;;4.03;100.00;98502.97;1674935;85;21076;-83
2023/01/05 07:55:20;;;;;;;18.65;15.43;;;;;;;4.10;100.00;98512.93;1664107;84;21607;-85
2023/01/05 07:57:47;;;;;;;13.65;11.43;;;;;;;4.15;100.00;98518.34;1671389;85;21022;-79
2023/01/05 08:00:16;;;;;;;16.77;12.37;;;;;;;4.18;100.00;98508.55;1664231;84;21079;-81
2023/01/05 08:02:44;;;;;;;19.23;13.85;;;;;;;4.26;100.00;98501.54;1675147;82;21072;-80
2023/01/05 08:05:11;;;;;;;20.80;14.20;;;;;;;4.26;100.00;98501.54;1693386;83;21001;-85
2023/01/05 08:07:38;;;;;;;15.40;12.25;;;;;;;4.29;100.00;98499.20;1672029;85;21006;-80
2023/01/05 08:15:38;;;;;;;16.42;13.62;;;;;;;4.44;100.00;98481.37;1657508;85;21261;-82
2023/01/05 08:18:05;;;;;;;17.75;13.58;;;;;;;4.51;100.00;98468.70;1660377;86;21082;-82
2023/01/05 08:20:32;;;;;;;17.02;13.43;;;;;;;4.54;100.00;98474.89;1667087;86;21686;-81
2023/01/05 08:23:02;;;;;;;15.45;12.40;;;;;;;4.55;100.00;98455.73;1662986;86;21027;-82
2023/01/05 08:25:31;;;;;;;16.95;14.20;;;;;;;4.56;100.00;98454.66;1652511;85;21709;-81
2023/01/05 08:27:59;;;;;;;15.58;12.30;;;;;;;4.54;100.00;98444.27;1656889;86;21051;-81
2023/01/05 08:30:26;;;;;;;16.52;13.68;;;;;;;4.58;100.00;98444.59;1633010;87;21102;-85
2023/01/05 08:32:56;;;;;;;16.12;13.98;;;;;;;4.62;100.00;98453.70;1646314;86;20990;-84
2023/01/05 08:35:23;;;;;;;17.57;13.50;;;;;;;4.66;100.00;98447.66;1635736;86;21037;-78
2023/01/05 08:37:50;;;;;;;19.75;14.45;;;;;;;4.70;100.00;98450.66;1648796;86;21066;-78
2023/01/05 08:40:19;;;;;;;19.10;12.73;;;;;;;4.71;100.00;98441.08;1669292;85;21587;-87
2023/01/05 08:42:47;;;;;;;16.17;12.10;;;;;;;4.75;100.00;98437.39;1670898;85;21644;-89
2023/01/05 08:45:15;;;;;;;19.73;13.15;;;;;;;4.75;100.00;98430.22;1670199;85;21549;-86
2023/01/05 08:47:53;;;;;;;18.02;13.50;;;;;;;4.78;100.00;98426.28;1669932;85;21111;-84
2023/01/05 08:50:26;;;;;;;14.90;12.35;;;;;;;4.77;100.00;98416.14;1670030;85;21255;-83
2023/01/05 08:52:56;;;;;;;17.52;13.70;;;;;;;4.77;100.00;98412.67;1670006;85;21013;-81
2023/01/05 08:55:22;;;;;;;17.90;11.75;;;;;;;4.82;100.00;98406.91;1669660;85;21060;-84
2023/01/05 08:57:51;;;;;;;15.68;12.90;;;;;;;4.91;100.00;98414.47;1650330;83;21544;-79
2023/01/05 09:00:20;;;;;;;15.03;11.80;;;;;;;4.92;100.00;98403.58;1636675;86;21121;-82
2023/01/05 09:02:53;;;;;;;19.57;14.10;;;;;;;4.96;100.00;98396.70;1655787;86;21532;-84
2023/01/05 09:05:48;;;;;;;26.00;16.65;;;;;;;4.98;100.00;98393.28;1638703;86;22266;-82
2023/01/05 09:08:32;;;;;;;15.75;12.78;;;;;;;5.01;100.00;98393.30;1643787;86;20972;-83
2023/01/05 09:11:18;;;;;;;22.15;12.82;;;;;;;5.03;100.00;98382.70;1650440;85;21035;-83
2023/01/05 09:13:53;;;;;;;12.53;11.12;;;;;;;5.05;100.00;98397.89;1668899;85;21034;-82
2023/01/05 09:16:23;;;;;;;17.77;12.07;;;;;;;5.08;100.00;98357.45;1651208;86;22250;-80
2023/01/05 09:18:50;;;;;;;15.28;11.63;;;;;;;5.16;100.00;98372.20;1647109;86;21117;-80
2023/01/05 09:21:18;;;;;;;15.05;10.38;;;;;;;5.23;100.00;98358.14;1699725;84;20987;-80
2023/01/05 09:23:45;;;;;;;12.68;10.40;;;;;;;5.26;100.00;98385.66;1698907;84;21011;-78
2023/01/05 09:26:12;;;;;;;11.65;9.55;;;;;;;5.31;100.00;98356.40;1698563;84;21010;-79
2023/01/05 09:28:43;;;;;;;9.53;8.20;;;;;;;5.36;100.00;98344.47;1698483;84;21695;-80
2023/01/05 09:31:20;;;;;;;9.48;8.48;;;;;;;5.42;100.00;98344.78;1697969;83;21589;-78
2023/01/05 09:33:50;;;;;;;9.10;7.55;;;;;;;5.50;100.00;98358.22;1712275;83;21620;-79
2023/01/05 09:36:17;;;;;;;9.95;7.22;;;;;;;5.57;100.00;98340.95;1670980;84;21642;-83
2023/01/05 09:38:52;;;;;;;8.95;8.05;;;;;;;5.68;100.00;98329.88;1694769;83;21040;-79
2023/01/05 09:41:55;;;;;;;10.35;7.55;;;;;;;5.76;100.00;98349.94;1683943;84;21770;-84
2023/01/05 09:44:36;;;;;;;11.73;8.43;;;;;;;5.80;100.00;98320.40;1704650;83;21080;-78
2023/01/05 09:47:18;;;;;;;8.30;7.45;;;;;;;5.86;100.00;98325.51;1713340;83;21008;-81
2023/01/05 09:49:50;;;;;;;8.55;6.40;;;;;;;5.88;100.00;98311.95;1678719;84;21572;-80
2023/01/05 09:52:24;;;;;;;8.48;6.97;;;;;;;5.89;100.00;98311.71;1697010;84;21059;-85
2023/01/05 09:54:59;;;;;;;9.78;7.47;;;;;;;5.93;100.00;98296.00;1694481;84;21089;-82
2023/01/05 09:57:34;;;;;;;8.93;8.03;;;;;;;5.99;100.00;98298.47;1693377;84;20993;-83
2023/01/05 10:00:10;;;;;;;8.20;7.25;;;;;;;6.01;100.00;98286.18;1697204;83;21078;-84
2023/01/05 10:03:08;;;;;;;10.15;7.55;;;;;;;6.04;100.00;98279.80;1698166;84;21578;-78
2023/01/05 10:05:40;;;;;;;9.00;7.20;;;;;;;6.09;100.00;98285.73;1696570;83;21591;-78
2023/01/05 10:08:19;;;;;;;11.33;8.78;;;;;;;6.09;100.00;98285.73;1697995;84;21812;-81
2023/01/05 10:14:01;;;;;;;13.10;7.20;;;;;;;6.18;100.00;98274.86;1688894;84;21522;-81
2023/01/05 10:16:32;;;;;;;11.18;7.75;;;;;;;6.21;100.00;98263.66;1655961;86;21085;-82
2023/01/05 10:19:04;;;;;;;11.38;7.20;;;;;;;6.20;100.00;98258.04;1677048;85;21080;-79
2023/01/05 10:21:44;;;;;;;9.38;7.17;;;;;;;6.22;100.00;98256.45;1661567;86;21138;-78
2023/01/05 10:24:33;;;;;;;9.53;7.15;;;;;;;6.23;100.00;98244.73;1660891;85;22210;-79
2023/01/05 10:27:35;;;;;;;9.58;7.72;;;;;;;6.23;100.00;98252.73;1646097;86;21083;-83
2023/01/05 10:30:26;;;;;;;;;;;;;;;6.26;100.00;98241.00;1689766;83;21014;-86
2023/01/05 10:33:20;;;;;;;9.25;7.42;;;;;;;6.27;100.00;98244.48;1644711;86;20177;-84
2023/01/05 10:36:16;;;;;;;12.78;7.20;;;;;;;6.25;100.00;98244.73;1665762;85;20962;-82
2023/01/05 10:39:22;;;;;;;9.38;7.50;;;;;;;6.26;100.00;98242.34;1667436;84;26638;-88
2023/01/05 10:42:03;;;;;;;7.50;6.80;;;;;;;6.27;100.00;98236.47;1675456;84;20983;-83
2023/01/05 10:45:02;;;;;;;9.55;7.17;;;;;;;6.29;100.00;98237.00;1663417;86;21012;-80
2023/01/05 10:47:31;;;;;;;10.63;6.67;;;;;;;6.31;100.00;98234.89;1663876;86;21015;-80
2023/01/05 10:50:32;;;;;;;9.35;7.92;;;;;;;6.32;100.00;98226.63;1645786;86;21678;-86
2023/01/05 10:53:38;;;;;;;9.07;7.80;;;;;;;6.34;100.00;98219.16;1680244;85;20983;-87
2023/01/05 10:56:31;;;;;;;9.10;7.55;;;;;;;6.36;100.00;98210.36;1651188;86;21467;-86
2023/01/05 10:59:20;;;;;;;11.53;7.33;;;;;;;6.42;100.00;98208.00;1632897;87;21019;-85
2023/01/05 11:02:17;;;;;;;7.85;6.78;;;;;;;6.44;100.00;98213.06;1642234;86;21024;-85
2023/01/05 11:04:48;;;;;;;9.58;7.28;;;;;;;6.48;100.00;98210.95;1656970;86;21143;-86
2023/01/05 11:07:28;;;;;;;9.00;7.45;;;;;;;6.47;100.00;98208.03;1641872;86;21118;-91
2023/01/05 11:10:07;;;;;;;6.30;5.67;;;;;;;6.50;100.00;98194.15;1642032;86;21556;-85
2023/01/05 11:12:57;;;;;;;7.62;6.62;;;;;;;6.53;100.00;98198.96;1600371;87;20991;-81
2023/01/05 11:15:36;;;;;;;8.58;6.72;;;;;;;6.54;100.00;98195.76;1674219;85;21011;-82
2023/01/05 11:18:03;;;;;;;7.92;5.42;;;;;;;6.57;100.00;98193.89;1645098;87;21309;-85
2023/01/05 11:20:31;;;;;;;7.33;6.22;;;;;;;6.61;100.00;98188.86;1675216;85;20994;-84
2023/01/05 11:23:01;;;;;;;9.20;6.60;;;;;;;6.63;100.00;98184.84;1674128;85;21057;-84
2023/01/05 11:25:36;;;;;;;9.18;6.20;;;;;;;6.66;100.00;98196.36;1624733;87;21069;-82
2023/01/05 11:28:16;;;;;;;6.72;6.00;;;;;;;6.68;100.00;98176.86;1674629;85;21054;-87
2023/01/05 11:31:04;;;;;;;10.53;6.60;;;;;;;6.70;100.00;98192.10;1674527;85;21087;-82
2023/01/05 11:33:35;;;;;;;8.05;5.45;;;;;;;6.72;100.00;98191.82;1645145;87;21871;-81
2023/01/05 11:36:02;;;;;;;8.40;6.42;;;;;;;6.75;100.00;98185.97;1674253;85;20978;-81
2023/01/05 11:38:30;;;;;;;8.53;5.95;;;;;;;6.79;100.00;98177.17;1625445;87;21015;-78
2023/01/05 11:40:57;;;;;;;12.33;6.85;;;;;;;6.85;100.00;98176.66;1674002;85;21050;-83
2023/01/05 11:43:26;;;;;;;6.37;5.30;;;;;;;6.90;100.00;98175.34;1646069;87;21201;-84
2023/01/05 11:45:56;;;;;;;8.70;7.03;;;;;;;6.93;100.00;98166.78;1673472;85;21010;-81
2023/01/05 11:48:28;;;;;;;7.20;5.35;;;;;;;6.94;100.00;98165.20;1645775;87;21099;-87
2023/01/05 11:50:56;;;;;;;6.83;5.05;;;;;;;6.94;100.00;98183.91;1674069;85;21078;-85
2023/01/05 11:53:34;;;;;;;5.28;4.65;;;;;;;6.94;100.00;98162.52;1645848;87;21107;-86
2023/01/05 11:56:21;;;;;;;5.50;4.80;;;;;;;6.96;100.00;98180.95;1673781;85;21792;-80
2023/01/05 11:58:57;;;;;;;6.12;4.80;;;;;;;7.01;100.00;98172.95;1644313;87;21019;-79
2023/01/05 14:20:51;;;;;;;6.97;6.28;;;;;;;6.89;100.00;98121.09;1666352;83;28903;-76
2023/01/05 14:23:30;;;;;;;5.37;4.87;;;;;;;6.94;100.00;98122.44;1619934;88;21086;-79
2023/01/05 14:26:00;;;;;;;6.33;4.53;;;;;;;7.03;100.00;98122.71;1632274;87;21321;-76
2023/01/05 14:28:35;;;;;;;7.62;5.08;;;;;;;7.11;100.00;98125.38;1626268;87;21629;-76
2023/01/05 14:31:13;;;;;;;5.55;4.95;;;;;;;7.14;100.00;98124.34;1644787;87;21009;-77
2023/01/05 14:34:06;;;;;;;6.35;4.83;;;;;;;7.21;100.00;98125.39;1622771;87;21057;-76
2023/01/05 14:36:47;;;;;;;8.93;5.58;;;;;;;7.26;100.00;98131.55;1645977;85;21029;-78
2023/01/05 14:39:22;;;;;;;5.03;4.53;;;;;;;7.31;100.00;98149.47;1649996;85;21305;-81
2023/01/05 14:42:06;;;;;;;6.97;4.62;;;;;;;7.35;100.00;98124.61;1672061;85;21047;-76
2023/01/05 14:44:52;;;;;;;6.75;4.70;;;;;;;7.39;100.00;98131.55;1627064;87;20982;-76
2023/01/05 14:47:36;;;;;;;5.37;4.28;;;;;;;7.43;100.00;98129.97;1612822;87;21061;-76
2023/01/05 14:50:03;;;;;;;7.97;5.12;;;;;;;7.48;100.00;98127.83;1646154;85;21097;-74